createdAt,value
2023-05-04T00:01:19.625Z,10.30
2023-05-04T00:03:47.695Z,10.00
2023-05-04T00:06:16.422Z,10.00
2023-05-04T00:08:44.444Z,9.90
2023-05-04T00:11:12.615Z,10.10
2023-05-04T00:13:40.577Z,9.80
2023-05-04T00:16:11.084Z,9.90
2023-05-04T00:18:39.581Z,9.80
2023-05-04T00:21:08.074Z,9.80
2023-05-04T00:23:36.306Z,9.80
2023-05-04T00:26:04.303Z,9.70
2023-05-04T00:28:32.254Z,9.70
2023-05-04T00:31:00.279Z,9.80
2023-05-04T00:33:29.626Z,9.70
2023-05-04T00:35:57.620Z,9.70
2023-05-04T00:38:25.608Z,9.60
2023-05-04T00:40:53.657Z,9.70
2023-05-04T00:43:21.735Z,9.90
2023-05-04T00:45:49.775Z,9.50
2023-05-04T00:48:17.766Z,9.70
2023-05-04T00:50:47.187Z,9.50
2023-05-04T00:53:15.416Z,9.70
2023-05-04T00:55:43.417Z,9.50
2023-05-04T00:58:11.567Z,9.40
2023-05-04T01:00:39.638Z,9.40
2023-05-04T01:03:07.918Z,9.40
2023-05-04T01:05:39.577Z,9.30
2023-05-04T01:08:16.606Z,9.30
2023-05-04T01:10:51.011Z,9.30
2023-05-04T01:13:22.461Z,9.30
2023-05-04T01:15:50.980Z,9.30
2023-05-04T01:18:19.042Z,9.50
2023-05-04T01:20:47.097Z,9.20
2023-05-04T01:23:16.604Z,9.20
2023-05-04T01:25:49.626Z,9.20
2023-05-04T01:28:20.853Z,9.20
2023-05-04T01:30:52.472Z,9.20
2023-05-04T01:33:22.168Z,9.10
2023-05-04T01:35:50.992Z,9.10
2023-05-04T01:38:21.175Z,9.10
2023-05-04T01:40:49.151Z,9.00
2023-05-04T01:43:17.095Z,9.20
2023-05-04T01:45:45.063Z,9.00
2023-05-04T01:48:13.044Z,9.10
2023-05-04T01:50:41.107Z,8.90
2023-05-04T01:53:09.246Z,9.00
2023-05-04T01:55:38.685Z,9.00
2023-05-04T01:58:06.722Z,9.00
2023-05-04T02:00:34.684Z,8.90
2023-05-04T02:03:02.875Z,9.60
2023-05-04T02:05:30.984Z,8.80
2023-05-04T02:07:59.056Z,8.90
2023-05-04T02:10:27.007Z,8.80
2023-05-04T02:12:56.675Z,8.80
2023-05-04T02:15:24.684Z,9.30
2023-05-04T02:17:52.806Z,8.80
2023-05-04T02:20:21.048Z,8.80
2023-05-04T02:22:49.046Z,8.70
2023-05-04T02:25:17.123Z,8.70
2023-05-04T02:27:45.099Z,8.70
2023-05-04T02:30:15.597Z,8.70
2023-05-04T02:32:43.676Z,8.70
2023-05-04T02:35:12.999Z,8.70
2023-05-04T02:37:40.981Z,8.50
2023-05-04T02:40:10.021Z,8.60
2023-05-04T02:42:38.064Z,8.60
2023-05-04T02:45:07.466Z,8.60
2023-05-04T02:47:36.884Z,8.50
2023-05-04T02:50:05.678Z,8.50
2023-05-04T02:52:33.967Z,8.50
2023-05-04T02:55:03.178Z,8.50
2023-05-04T02:57:31.251Z,8.50
2023-05-04T02:59:59.214Z,8.30
2023-05-04T03:02:27.330Z,8.50
2023-05-04T03:04:56.638Z,8.50
2023-05-04T03:07:24.633Z,8.60
2023-05-04T03:09:52.633Z,8.30
2023-05-04T03:12:20.918Z,8.30
2023-05-04T03:14:48.863Z,8.30
2023-05-04T03:17:16.856Z,7.90
2023-05-04T03:19:44.942Z,8.50
2023-05-04T03:22:14.342Z,8.30
2023-05-04T03:24:43.945Z,8.20
2023-05-04T03:27:12.352Z,8.20
2023-05-04T03:29:40.368Z,8.30
2023-05-04T03:32:08.445Z,8.20
2023-05-04T03:34:36.554Z,8.50
2023-05-04T03:37:04.605Z,8.20
2023-05-04T03:39:33.949Z,8.20
2023-05-04T03:42:02.699Z,8.10
2023-05-04T03:44:30.693Z,8.40
2023-05-04T03:46:58.662Z,8.20
2023-05-04T03:49:26.992Z,8.10
2023-05-04T03:51:54.959Z,8.10
2023-05-04T03:54:23.048Z,8.10
2023-05-04T03:56:52.344Z,8.00
2023-05-04T03:59:20.463Z,7.90
2023-05-04T04:01:48.449Z,8.00
2023-05-04T04:04:16.524Z,7.90
2023-05-04T04:06:44.926Z,7.90
2023-05-04T04:09:13.030Z,7.90
2023-05-04T04:11:41.060Z,7.80
2023-05-04T04:14:10.484Z,8.10
2023-05-04T04:16:38.631Z,7.90
2023-05-04T04:19:07.910Z,7.80
2023-05-04T04:21:35.951Z,7.90
2023-05-04T04:24:04.089Z,8.20
2023-05-04T04:26:32.394Z,7.80
2023-05-04T04:29:00.452Z,7.90
2023-05-04T04:31:30.471Z,7.80
2023-05-04T04:33:59.254Z,7.80
2023-05-04T04:36:27.268Z,7.80
2023-05-04T04:38:55.255Z,7.80
2023-05-04T04:41:23.307Z,7.90
2023-05-04T04:43:51.266Z,7.80
2023-05-04T04:46:19.285Z,7.80
2023-05-04T04:48:49.185Z,8.80
2023-05-04T04:51:17.207Z,7.90
2023-05-04T04:53:45.412Z,8.90
2023-05-04T04:56:13.454Z,7.80
2023-05-04T04:58:41.542Z,7.80
2023-05-04T05:01:09.614Z,7.80
2023-05-04T05:03:37.693Z,8.00
2023-05-04T05:06:07.195Z,7.80
2023-05-04T05:08:35.188Z,7.90
2023-05-04T05:11:03.312Z,8.00
2023-05-04T05:13:31.553Z,8.00
2023-05-04T05:15:59.551Z,7.90
2023-05-04T05:18:29.329Z,7.90
2023-05-04T05:20:57.744Z,8.00
2023-05-04T05:23:27.077Z,7.90
2023-05-04T05:25:55.817Z,7.90
2023-05-04T05:28:24.031Z,8.00
2023-05-04T05:30:52.371Z,7.90
2023-05-04T05:33:20.503Z,8.70
2023-05-04T05:35:48.447Z,7.90
2023-05-04T05:38:17.643Z,7.90
2023-05-04T05:40:48.619Z,8.10
2023-05-04T05:43:16.667Z,8.20
2023-05-04T05:45:44.625Z,8.10
2023-05-04T05:48:12.651Z,8.10
2023-05-04T05:50:40.746Z,8.00
2023-05-04T05:53:08.679Z,8.00
2023-05-04T05:55:36.638Z,8.00
2023-05-04T05:58:06.584Z,8.10
2023-05-04T06:00:34.577Z,8.10
2023-05-04T06:03:02.651Z,8.40
2023-05-04T06:05:30.800Z,8.10
2023-05-04T06:07:58.776Z,8.10
2023-05-04T06:10:26.837Z,8.20
2023-05-04T06:12:54.890Z,8.20
2023-05-04T06:15:24.282Z,8.30
2023-05-04T06:17:52.298Z,8.30
2023-05-04T06:20:20.424Z,8.50
2023-05-04T06:22:48.469Z,8.40
2023-05-04T06:25:16.448Z,8.50
2023-05-04T06:27:44.571Z,8.60
2023-05-04T06:30:13.627Z,8.60
2023-05-04T06:32:43.066Z,8.70
2023-05-04T06:35:11.738Z,8.80
2023-05-04T06:37:39.745Z,8.90
2023-05-04T06:40:09.368Z,9.00
2023-05-04T06:42:37.521Z,9.00
2023-05-04T06:45:06.297Z,9.10
2023-05-04T06:47:36.722Z,9.10
2023-05-04T06:50:10.614Z,9.20
2023-05-04T06:52:41.135Z,9.30
2023-05-04T06:55:09.770Z,9.30
2023-05-04T06:57:37.920Z,9.40
2023-05-04T07:00:07.053Z,9.40
2023-05-04T07:02:35.761Z,9.50
2023-05-04T07:05:03.981Z,9.70
2023-05-04T07:07:33.508Z,9.70
2023-05-04T07:10:01.636Z,10.30
2023-05-04T07:12:29.762Z,9.80
2023-05-04T07:14:57.740Z,9.90
2023-05-04T07:17:26.143Z,10.00
2023-05-04T07:19:54.171Z,10.10
2023-05-04T07:22:22.249Z,10.20
2023-05-04T07:24:51.617Z,10.20
2023-05-04T07:27:19.579Z,10.30
2023-05-04T07:29:48.138Z,10.50
2023-05-04T07:32:16.185Z,10.30
2023-05-04T07:34:46.435Z,10.50
2023-05-04T07:37:15.779Z,10.60
2023-05-04T07:39:43.852Z,10.60
2023-05-04T07:42:13.233Z,10.80
2023-05-04T07:44:41.288Z,10.90
2023-05-04T07:47:09.353Z,10.90
2023-05-04T07:49:37.338Z,11.00
2023-05-04T07:52:05.776Z,11.10
2023-05-04T07:54:33.802Z,11.20
2023-05-04T07:57:04.313Z,11.30
2023-05-04T07:59:33.984Z,11.30
2023-05-04T08:02:02.053Z,11.40
2023-05-04T08:04:30.053Z,11.40
2023-05-04T08:06:58.021Z,11.50
2023-05-04T08:09:26.018Z,11.60
2023-05-04T08:11:55.009Z,12.20
2023-05-04T08:14:23.047Z,11.60
2023-05-04T08:16:52.400Z,11.70
2023-05-04T08:19:20.540Z,11.80
2023-05-04T08:21:48.769Z,11.90
2023-05-04T08:24:18.281Z,11.90
2023-05-04T08:26:55.516Z,12.00
2023-05-04T08:29:32.171Z,12.10
2023-05-04T08:32:01.623Z,12.20
2023-05-04T08:34:29.622Z,12.30
2023-05-04T08:36:57.981Z,12.40
2023-05-04T08:39:26.134Z,12.50
2023-05-04T08:41:54.141Z,12.50
2023-05-04T08:44:23.159Z,12.60
2023-05-04T08:46:53.406Z,12.70
2023-05-04T08:49:24.451Z,12.70
2023-05-04T08:51:52.818Z,12.80
2023-05-04T08:54:22.213Z,12.90
2023-05-04T08:56:55.045Z,13.00
2023-05-04T08:59:24.305Z,13.20
2023-05-04T09:01:57.005Z,13.30
2023-05-04T09:04:29.328Z,13.30
2023-05-04T09:06:58.512Z,13.50
2023-05-04T09:09:28.754Z,13.90
2023-05-04T09:11:56.751Z,13.70
2023-05-04T09:14:34.051Z,13.80
2023-05-04T09:17:02.393Z,13.90
2023-05-04T09:19:34.774Z,14.00
2023-05-04T09:22:02.740Z,14.00
2023-05-04T09:24:31.556Z,14.10
2023-05-04T09:27:10.324Z,14.30
2023-05-04T09:29:39.740Z,14.40
2023-05-04T09:32:12.370Z,14.50
2023-05-04T09:34:50.533Z,14.60
2023-05-04T09:37:20.751Z,14.70
2023-05-04T09:39:56.086Z,14.80
2023-05-04T09:42:24.781Z,14.90
2023-05-04T09:45:03.292Z,15.00
2023-05-04T09:47:35.609Z,15.20
2023-05-04T09:50:20.775Z,15.30
2023-05-04T09:52:49.976Z,15.40
2023-05-04T09:55:19.432Z,15.60
2023-05-04T09:57:49.000Z,15.70
2023-05-04T10:00:19.056Z,15.90
2023-05-04T10:02:48.929Z,15.80
2023-05-04T10:05:21.681Z,15.90
2023-05-04T10:07:49.804Z,16.10
2023-05-04T10:10:17.765Z,16.20
2023-05-04T10:12:46.424Z,16.60
2023-05-04T10:15:15.937Z,16.40
2023-05-04T10:18:04.449Z,16.60
2023-05-04T10:20:51.945Z,16.80
2023-05-04T10:23:52.144Z,17.00
2023-05-04T10:26:48.216Z,17.10
2023-05-04T10:29:23.898Z,17.20
2023-05-04T10:31:53.458Z,17.30
2023-05-04T10:34:26.896Z,17.50
2023-05-04T10:36:56.988Z,17.70
2023-05-04T10:39:26.311Z,17.80
2023-05-04T10:42:02.102Z,18.00
2023-05-04T10:44:31.006Z,18.20
2023-05-04T10:47:00.802Z,18.40
2023-05-04T10:49:29.050Z,18.40
2023-05-04T10:52:12.104Z,18.60
2023-05-04T10:54:42.095Z,18.70
2023-05-04T10:57:11.230Z,18.80
2023-05-04T10:59:40.424Z,18.80
2023-05-04T11:02:08.732Z,19.00
2023-05-04T11:04:37.328Z,19.20
2023-05-04T11:07:08.492Z,19.30
2023-05-04T11:09:40.423Z,19.50
2023-05-04T11:12:10.882Z,19.60
2023-05-04T11:14:43.127Z,19.90
2023-05-04T11:19:52.324Z,20.00
2023-05-04T11:22:20.920Z,20.00
2023-05-04T11:24:50.594Z,20.20
2023-05-04T11:27:26.020Z,20.30
2023-05-04T11:29:55.686Z,20.30
2023-05-04T11:32:23.831Z,20.30
2023-05-04T11:34:51.937Z,20.50
2023-05-04T11:37:19.911Z,20.70
2023-05-04T11:39:48.390Z,20.80
2023-05-04T11:42:18.494Z,20.90
2023-05-04T11:44:46.827Z,21.10
2023-05-04T11:47:15.717Z,21.10
2023-05-04T11:49:44.094Z,21.20
2023-05-04T11:52:12.354Z,21.40
2023-05-04T11:54:40.359Z,21.80
2023-05-04T11:57:08.419Z,21.90
2023-05-04T11:59:37.791Z,22.00
2023-05-04T12:02:05.890Z,22.00
2023-05-04T12:04:34.048Z,22.20
2023-05-04T12:07:07.206Z,22.30
2023-05-04T12:09:45.215Z,22.50
2023-05-04T12:12:13.276Z,22.60
2023-05-04T12:14:50.224Z,22.80
2023-05-04T12:17:18.291Z,22.90
2023-05-04T12:19:51.190Z,23.10
2023-05-04T12:22:19.413Z,23.20
2023-05-04T12:24:47.451Z,23.40
2023-05-04T12:27:15.868Z,23.70
2023-05-04T12:29:43.873Z,23.50
2023-05-04T12:32:13.245Z,23.70
2023-05-04T12:34:41.323Z,24.00
2023-05-04T12:37:09.759Z,24.10
2023-05-04T12:39:37.769Z,23.90
2023-05-04T12:42:05.951Z,24.00
2023-05-04T12:44:34.518Z,24.20
2023-05-04T12:47:02.773Z,24.30
2023-05-04T12:49:32.125Z,24.40
2023-05-04T12:52:00.126Z,24.40
2023-05-04T12:54:28.107Z,24.50
2023-05-04T12:56:56.217Z,24.50
2023-05-04T12:59:24.937Z,24.70
2023-05-04T13:01:53.012Z,24.90
2023-05-04T13:04:21.143Z,24.80
2023-05-04T13:06:50.468Z,24.90
2023-05-04T13:09:20.709Z,24.80
2023-05-04T13:11:49.677Z,24.70
2023-05-04T13:14:17.644Z,24.60
2023-05-04T13:16:45.633Z,24.70
2023-05-04T13:19:13.657Z,24.80
2023-05-04T13:21:41.681Z,25.10
2023-05-04T13:24:11.422Z,25.30
2023-05-04T13:26:39.626Z,25.30
2023-05-04T13:29:07.628Z,25.20
2023-05-04T13:31:35.712Z,25.10
2023-05-04T13:34:03.788Z,25.10
2023-05-04T13:36:32.274Z,25.10
2023-05-04T13:39:00.852Z,25.10
2023-05-04T13:41:30.180Z,25.30
2023-05-04T13:43:58.189Z,24.90
2023-05-04T13:46:26.213Z,25.00
2023-05-04T13:48:56.394Z,24.90
2023-05-04T13:51:25.074Z,25.30
2023-05-04T13:53:53.048Z,25.80
2023-05-04T13:56:21.031Z,26.10
2023-05-04T13:58:50.426Z,26.30
2023-05-04T14:01:18.417Z,26.50
2023-05-04T14:03:46.863Z,26.90
2023-05-04T14:06:15.159Z,27.20
2023-05-04T14:08:43.116Z,27.20
2023-05-04T14:11:11.116Z,27.60
2023-05-04T14:13:39.053Z,27.90
2023-05-04T14:16:08.701Z,28.30
2023-05-04T14:18:37.035Z,28.30
2023-05-04T14:21:05.164Z,28.50
2023-05-04T14:23:33.141Z,28.70
2023-05-04T14:26:01.094Z,28.80
2023-05-04T14:28:29.072Z,29.10
2023-05-04T14:30:58.116Z,29.40
2023-05-04T14:33:27.497Z,29.40
2023-05-04T14:35:55.448Z,29.40
2023-05-04T14:38:23.388Z,29.80
2023-05-04T14:40:52.944Z,30.30
2023-05-04T14:43:20.964Z,30.10
2023-05-04T14:45:48.966Z,30.40
2023-05-04T14:48:17.607Z,30.40
2023-05-04T14:50:47.093Z,30.40
2023-05-04T14:53:15.121Z,30.60
2023-05-04T14:55:43.557Z,30.90
2023-05-04T14:58:11.994Z,30.50
2023-05-04T15:00:40.009Z,30.10
2023-05-04T15:03:08.517Z,30.20
2023-05-04T15:05:36.876Z,29.80
2023-05-04T15:08:06.809Z,29.70
2023-05-04T15:10:35.079Z,29.70
2023-05-04T15:13:03.317Z,29.90
2023-05-04T15:15:31.401Z,29.50
2023-05-04T15:17:59.503Z,29.80
2023-05-04T15:20:27.758Z,30.30
2023-05-04T15:22:55.713Z,30.40
2023-05-04T15:25:25.137Z,30.10
2023-05-04T15:27:53.183Z,30.10
2023-05-04T15:30:21.548Z,29.70
2023-05-04T15:32:49.667Z,29.40
2023-05-04T15:35:17.682Z,29.30
2023-05-04T15:37:45.880Z,29.10
2023-05-04T15:40:14.589Z,29.20
2023-05-04T15:42:43.929Z,29.00
2023-05-04T15:45:11.977Z,28.80
2023-05-04T15:47:39.981Z,28.80
2023-05-04T15:50:08.802Z,28.80
2023-05-04T15:52:37.117Z,28.80
2023-05-04T15:55:20.333Z,29.10
2023-05-04T15:57:54.786Z,29.00
2023-05-04T16:00:23.563Z,29.10
2023-05-04T16:02:51.934Z,29.70
2023-05-04T16:05:20.372Z,29.20
2023-05-04T16:07:48.607Z,29.10
2023-05-04T16:10:16.692Z,28.70
2023-05-04T16:12:44.759Z,28.50
2023-05-04T16:15:15.605Z,28.40
2023-05-04T16:17:43.662Z,28.50
2023-05-04T16:20:12.395Z,28.50
2023-05-04T16:22:40.459Z,28.30
2023-05-04T16:25:11.107Z,28.10
2023-05-04T16:27:39.829Z,28.10
2023-05-04T16:30:09.662Z,28.00
2023-05-04T16:32:39.420Z,27.70
2023-05-04T16:35:08.744Z,27.70
2023-05-04T16:37:37.154Z,27.60
2023-05-04T16:40:14.031Z,27.80
2023-05-04T16:42:42.216Z,28.30
2023-05-04T16:45:13.370Z,28.30
2023-05-04T16:47:43.116Z,28.20
2023-05-04T16:50:11.805Z,28.60
2023-05-04T16:52:40.019Z,28.80
2023-05-04T16:55:11.615Z,28.80
2023-05-04T16:57:40.318Z,29.40
2023-05-04T17:00:10.559Z,29.60
2023-05-04T17:02:38.721Z,29.90
2023-05-04T17:05:10.388Z,29.80
2023-05-04T17:07:39.649Z,30.20
2023-05-04T17:10:09.315Z,30.20
2023-05-04T17:12:37.707Z,30.30
2023-05-04T17:15:07.254Z,30.20
2023-05-04T17:17:35.673Z,30.30
2023-05-04T17:20:03.771Z,30.10
2023-05-04T17:22:33.781Z,30.50
2023-05-04T17:25:02.142Z,30.20
2023-05-04T17:27:30.660Z,30.40
2023-05-04T17:29:58.597Z,30.40
2023-05-04T17:32:26.721Z,30.60
2023-05-04T17:35:01.256Z,30.80
2023-05-04T17:37:35.433Z,30.60
2023-05-04T17:40:04.164Z,29.80
2023-05-04T17:42:32.264Z,30.00
2023-05-04T17:45:00.380Z,29.90
2023-05-04T17:47:28.434Z,29.60
2023-05-04T17:49:58.691Z,29.30
2023-05-04T17:52:26.969Z,29.50
2023-05-04T17:54:56.363Z,29.20
2023-05-04T17:57:24.343Z,29.10
2023-05-04T17:59:52.317Z,28.80
2023-05-04T18:02:20.416Z,28.50
2023-05-04T18:04:48.429Z,28.00
2023-05-04T18:07:16.421Z,28.30
2023-05-04T18:09:44.394Z,27.90
2023-05-04T18:12:13.707Z,27.90
2023-05-04T18:14:41.700Z,27.60
2023-05-04T18:17:09.688Z,27.50
2023-05-04T18:19:37.681Z,27.30
2023-05-04T18:22:05.708Z,26.90
2023-05-04T18:24:34.087Z,26.80
2023-05-04T18:27:02.626Z,26.70
2023-05-04T18:29:32.083Z,26.60
2023-05-04T18:32:01.185Z,26.10
2023-05-04T18:34:29.217Z,26.10
2023-05-04T18:36:57.203Z,25.80
2023-05-04T18:39:25.221Z,25.50
2023-05-04T18:41:53.170Z,25.10
2023-05-04T18:44:21.209Z,24.80
2023-05-04T18:46:52.583Z,24.70
2023-05-04T18:49:20.514Z,24.80
2023-05-04T18:51:48.577Z,24.50
2023-05-04T18:54:17.219Z,24.30
2023-05-04T18:56:45.161Z,24.10
2023-05-04T18:59:13.154Z,24.00
2023-05-04T19:01:41.374Z,23.80
2023-05-04T19:04:10.760Z,23.70
2023-05-04T19:06:38.697Z,23.60
2023-05-04T19:09:08.084Z,23.50
2023-05-04T19:11:36.230Z,23.30
2023-05-04T19:14:04.268Z,23.30
2023-05-04T19:16:32.234Z,23.00
2023-05-04T19:19:00.318Z,22.90
2023-05-04T19:21:29.688Z,22.80
2023-05-04T19:23:57.667Z,22.60
2023-05-04T19:26:25.703Z,22.40
2023-05-04T19:28:53.712Z,22.30
2023-05-04T19:31:21.805Z,22.10
2023-05-04T19:33:50.129Z,22.10
2023-05-04T19:36:18.414Z,22.10
2023-05-04T19:38:47.810Z,21.90
2023-05-04T19:41:16.929Z,21.80
2023-05-04T19:43:45.148Z,21.70
2023-05-04T19:46:13.155Z,21.60
2023-05-04T19:48:41.856Z,21.50
2023-05-04T19:51:09.804Z,21.40
2023-05-04T19:53:37.851Z,21.40
2023-05-04T19:56:07.359Z,21.30
2023-05-04T19:58:35.389Z,21.20
2023-05-04T20:01:03.641Z,21.10
2023-05-04T20:03:31.684Z,21.10
2023-05-04T20:05:59.815Z,21.00
2023-05-04T20:08:27.942Z,20.90
2023-05-04T20:10:56.591Z,20.80
2023-05-04T20:13:26.412Z,20.80
2023-05-04T20:15:54.529Z,20.70
2023-05-04T20:18:23.257Z,20.50
2023-05-04T20:20:52.879Z,20.50
2023-05-04T20:23:20.932Z,20.40
2023-05-04T20:25:49.129Z,20.30
2023-05-04T20:28:17.776Z,20.30
2023-05-04T20:30:47.178Z,20.30
2023-05-04T20:33:15.203Z,20.20
2023-05-04T20:35:44.069Z,20.10
2023-05-04T20:38:12.240Z,20.10
2023-05-04T20:40:40.243Z,20.00
2023-05-04T20:43:08.300Z,19.90
2023-05-04T20:45:36.486Z,19.90
2023-05-04T20:48:06.349Z,19.90
2023-05-04T20:50:34.384Z,19.80
2023-05-04T20:53:05.011Z,19.80
2023-05-04T20:55:33.194Z,19.70
2023-05-04T20:58:01.221Z,19.70
2023-05-04T21:00:29.779Z,19.60
2023-05-04T21:02:58.332Z,19.50
2023-05-04T21:05:27.787Z,19.50
2023-05-04T21:07:56.509Z,19.40
2023-05-04T21:10:27.289Z,19.30
2023-05-04T21:12:56.935Z,19.20
2023-05-04T21:15:25.014Z,19.10
2023-05-04T21:17:53.497Z,19.10
2023-05-04T21:20:21.735Z,19.00
2023-05-04T21:22:51.432Z,19.00
2023-05-04T21:25:19.391Z,18.90
2023-05-04T21:27:47.339Z,18.90
2023-05-04T21:30:15.487Z,18.80
2023-05-04T21:32:43.685Z,18.80
2023-05-04T21:35:11.719Z,18.80
2023-05-04T21:37:39.708Z,18.80
2023-05-04T21:40:10.412Z,18.80
2023-05-04T21:42:38.486Z,18.60
2023-05-04T21:45:07.899Z,18.60
2023-05-04T21:47:36.223Z,18.60
2023-05-04T21:50:04.929Z,18.60
2023-05-04T21:52:32.934Z,18.50
2023-05-04T21:55:01.061Z,18.50
2023-05-04T21:57:33.218Z,18.40
2023-05-04T22:00:01.030Z,18.40
2023-05-04T22:02:29.062Z,18.30
2023-05-04T22:04:57.103Z,18.30
2023-05-04T22:07:25.113Z,18.20
2023-05-04T22:09:53.263Z,18.20
2023-05-04T22:12:21.506Z,18.10
2023-05-04T22:14:50.947Z,18.10
2023-05-04T22:17:18.927Z,18.10
2023-05-04T22:19:47.012Z,18.20
2023-05-04T22:22:15.073Z,18.20
2023-05-04T22:24:43.033Z,18.20
2023-05-04T22:27:10.973Z,18.10
2023-05-04T22:29:39.054Z,18.10
2023-05-04T22:32:08.768Z,18.20
2023-05-04T22:34:36.825Z,18.20
2023-05-04T22:37:04.828Z,18.10
2023-05-04T22:39:32.843Z,18.10
2023-05-04T22:42:01.441Z,18.20
2023-05-04T22:44:29.476Z,18.10
2023-05-04T22:46:57.617Z,18.10
2023-05-04T22:49:27.016Z,18.10
2023-05-04T22:51:55.005Z,18.10
2023-05-04T22:54:22.959Z,18.10
2023-05-04T22:56:50.998Z,18.10
2023-05-04T22:59:19.035Z,18.00
2023-05-04T23:01:47.710Z,18.00
2023-05-04T23:04:16.682Z,18.00
2023-05-04T23:06:46.353Z,18.00
2023-05-04T23:09:15.224Z,18.00
2023-05-04T23:11:43.345Z,18.00
2023-05-04T23:14:11.341Z,17.90
2023-05-04T23:16:39.303Z,17.90
2023-05-04T23:19:07.287Z,17.90
2023-05-04T23:21:35.327Z,17.80
2023-05-04T23:24:04.990Z,17.80
2023-05-04T23:26:33.106Z,17.70
2023-05-04T23:29:01.111Z,17.70
2023-05-04T23:31:29.918Z,17.60
2023-05-04T23:33:57.987Z,17.50
2023-05-04T23:36:26.005Z,17.50
2023-05-04T23:38:54.011Z,17.40
2023-05-04T23:41:24.273Z,17.30
2023-05-04T23:43:52.303Z,17.20
2023-05-04T23:46:20.418Z,17.10
2023-05-04T23:48:48.365Z,17.00
2023-05-04T23:51:16.430Z,17.00
2023-05-04T23:53:44.493Z,16.90
2023-05-04T23:56:13.017Z,16.80
2023-05-04T23:58:43.088Z,16.70
